Providence, Rhode Island
Traffic Map
Current Weather Conditions
Providence, Rhode Island
Few Clouds
Few Clouds
17°
Feels Like: 17°
Wind Chill: 17° Ceiling: Unl
Heat Index: 17° Visibility: 10mi
Dew Point: 14° Wind: 3mph
Humidity: 88% Direction: 280° (W)
Pressure: 30.36in Gusts: 0mph
Raw Report DataKPVD 061051Z 28003KT 10SM FEW250 M08/M10 A3036 RMK AO2 SLP279 FIRST AUGMENTED I1001 T10831100 $
Traffic Incident Summary
Active as of:
Severity:
Category:
InformationThere was an issue retrieving the traffic information for this location. Please try a different location or try again shortly.
Advertisements
Track Severe Weather on mobile